Time;durP1;ratioP1;P1;durP2;ratioP2;P2;SDS_P1;SDS_P2;PMS_P1;PMS_P2;Temp;Humidity;BMP_temperature;BMP_pressure;BME280_temperature;BME280_humidity;BME280_pressure;Samples;Min_cycle;Max_cycle;Signal;HPM_P1;HPM_P2
2022/04/06 04:01:48;;;;;;;6.80;6.17;;;;;;;;;;5345318;23;20497;-74
2022/04/06 04:04:13;;;;;;;7.33;6.63;;;7.30;96.30;;;;;;4975044;28;20428;-75
2022/04/06 04:06:39;;;;;;;6.87;6.03;;;;;;;;;;4992459;28;20907;-76
2022/04/06 04:09:05;;;;;;;5.77;5.17;;;;;;;;;;4974284;28;20184;-77
2022/04/06 04:11:31;;;;;;;7.47;6.77;;;7.30;96.30;;;;;;4992346;28;20486;-76
2022/04/06 04:13:57;;;;;;;7.13;6.43;;;7.30;96.30;;;;;;4992325;28;20452;-76
2022/04/06 04:16:23;;;;;;;8.87;7.97;;;7.30;96.30;;;;;;4999505;28;20170;-80
2022/04/06 04:18:49;;;;;;;6.07;5.47;;;7.30;96.30;;;;;;4987303;28;21068;-80
2022/04/06 04:43:25;;;;;;;6.07;5.07;;;7.30;96.30;;;;;;5768702;23;20477;-81
2022/04/06 04:45:51;;;;;;;6.33;5.77;;;7.30;96.30;;;;;;4958847;29;20807;-82
2022/04/06 04:48:16;;;;;;;6.93;5.63;;;7.30;96.30;;;;;;4940874;29;20650;-79
2022/04/06 04:50:42;;;;;;;7.33;5.63;;;7.30;96.30;;;;;;4941495;29;20195;-79
2022/04/06 04:53:07;;;;;;;6.40;5.57;;;7.30;96.30;;;;;;4958567;29;20171;-80
2022/04/06 04:55:33;;;;;;;4.70;4.30;;;7.30;96.30;;;;;;4941444;29;20667;-80
2022/04/06 04:57:59;;;;;;;7.00;5.07;;;7.30;96.30;;;;;;4941320;29;20207;-80
2022/04/06 05:00:25;;;;;;;5.60;5.10;;;7.30;96.30;;;;;;4959084;29;20555;-80
2022/04/06 05:02:51;;;;;;;5.83;5.30;;;7.30;96.30;;;;;;4958944;29;20601;-80
2022/04/06 05:05:16;;;;;;;5.07;4.57;;;7.30;96.30;;;;;;4940792;29;20418;-78
2022/04/06 05:07:42;;;;;;;6.80;5.10;;;7.40;96.30;;;;;;4939333;29;20186;-79
2022/04/06 05:10:08;;;;;;;5.90;4.37;;;7.50;96.30;;;;;;4950643;29;20473;-80
2022/04/06 05:12:34;;;;;;;6.57;5.10;;;7.40;96.30;;;;;;4940396;29;20205;-81
2022/04/06 05:15:00;;;;;;;5.43;4.90;;;7.40;96.30;;;;;;4950464;29;20455;-80
2022/04/06 05:17:30;;;;;;;6.80;4.70;;;7.50;96.30;;;;;;4921748;29;20405;-81
2022/04/06 05:19:55;;;;;;;6.27;5.17;;;7.50;96.30;;;;;;4929664;29;20770;-80
2022/04/06 05:22:21;;;;;;;6.90;5.27;;;7.60;96.30;;;;;;4938298;29;20443;-80
2022/04/06 05:24:46;;;;;;;5.90;3.70;;;7.70;96.30;;;;;;4921760;29;20210;-80
2022/04/06 05:27:12;;;;;;;4.80;4.30;;;7.70;96.30;;;;;;4924837;29;20595;-79
2022/04/06 05:29:38;;;;;;;4.67;4.27;;;7.70;96.30;;;;;;4940055;29;20658;-78
2022/04/06 05:32:04;;;;;;;4.17;3.77;;;7.70;96.30;;;;;;4957949;29;20195;-79
2022/04/06 05:34:30;;;;;;;5.67;4.47;;;7.70;96.30;;;;;;4940297;29;20420;-80
2022/04/06 05:36:56;;;;;;;6.13;4.87;;;7.60;96.30;;;;;;4934345;29;20561;-80
2022/04/06 05:39:22;;;;;;;4.60;4.20;;;7.60;96.30;;;;;;4929958;29;20506;-79
2022/04/06 05:41:49;;;;;;;4.53;4.13;;;7.60;96.30;;;;;;4944833;29;20535;-79
2022/04/06 05:44:15;;;;;;;3.47;2.93;;;7.70;96.30;;;;;;4920565;29;20802;-79
2022/04/06 05:46:40;;;;;;;5.23;4.73;;;7.70;96.30;;;;;;4956583;29;20427;-77
2022/04/06 05:49:06;;;;;;;4.57;4.17;;;7.80;96.30;;;;;;4957043;29;20190;-80
2022/04/06 05:51:32;;;;;;;3.27;2.97;;;7.80;96.30;;;;;;4949314;29;20217;-79
2022/04/06 05:53:58;;;;;;;4.33;3.90;;;7.80;96.30;;;;;;4936855;29;20698;-79
2022/04/06 05:56:24;;;;;;;5.63;4.67;;;7.80;96.30;;;;;;4928632;29;20455;-79
2022/04/06 05:58:50;;;;;;;4.90;4.10;;;7.80;96.30;;;;;;4941270;29;20411;-78
2022/04/06 06:01:15;;;;;;;5.33;3.90;;;7.70;96.30;;;;;;4914140;29;20705;-76
2022/04/06 06:03:40;;;;;;;4.60;3.83;;;7.80;96.30;;;;;;4939959;29;20187;-78
2022/04/06 06:06:06;;;;;;;4.90;4.20;;;7.80;96.30;;;;;;4937334;29;20548;-78
2022/04/06 06:08:31;;;;;;;5.60;4.07;;;7.80;96.30;;;;;;4938033;29;20211;-79
2022/04/06 06:10:57;;;;;;;4.07;3.77;;;7.80;96.30;;;;;;4920489;29;20199;-78
2022/04/06 06:13:23;;;;;;;6.30;3.43;;;7.80;96.30;;;;;;4937973;29;20219;-79
2022/04/06 06:15:48;;;;;;;5.93;4.80;;;7.90;96.30;;;;;;4937853;29;20171;-79
2022/04/06 06:18:15;;;;;;;4.87;4.37;;;7.90;96.30;;;;;;4937357;29;20287;-77
2022/04/06 06:20:41;;;;;;;5.17;4.43;;;7.90;96.30;;;;;;4937921;29;20231;-78
2022/04/06 06:23:08;;;;;;;4.40;3.93;;;8.00;96.30;;;;;;4920384;29;20423;-79
2022/04/06 06:25:33;;;;;;;4.50;4.03;;;7.90;96.30;;;;;;4937639;29;20881;-78
2022/04/06 06:27:59;;;;;;;4.53;4.13;;;7.90;96.30;;;;;;4920814;29;20420;-78
2022/04/06 06:30:27;;;;;;;5.23;3.13;;;8.00;96.30;;;;;;4938360;29;20233;-77
2022/04/06 06:32:55;;;;;;;4.87;3.27;;;8.10;96.30;;;;;;4937823;29;20579;-78
2022/04/06 06:35:21;;;;;;;6.43;4.00;;;8.20;96.30;;;;;;4920876;29;20519;-79
2022/04/06 06:37:48;;;;;;;6.90;4.20;;;8.30;96.30;;;;;;4920482;29;20424;-78
2022/04/06 06:40:15;;;;;;;4.00;3.70;;;8.20;96.30;;;;;;4937964;29;20187;-78
2022/04/06 06:42:40;;;;;;;6.20;4.10;;;8.20;96.30;;;;;;4938512;29;20403;-80
2022/04/06 06:45:07;;;;;;;4.30;3.73;;;8.20;96.30;;;;;;4957460;29;20938;-79
2022/04/06 06:47:32;;;;;;;4.23;3.47;;;8.20;96.30;;;;;;4940360;29;20179;-77
2022/04/06 06:49:58;;;;;;;5.43;3.50;;;8.20;96.30;;;;;;4957827;29;20441;-80
2022/04/06 06:52:23;;;;;;;5.33;4.27;;;8.20;96.30;;;;;;4957792;29;20282;-79
2022/04/06 06:54:49;;;;;;;3.90;3.30;;;8.20;96.30;;;;;;4957187;29;20363;-80
2022/04/06 06:57:14;;;;;;;7.90;3.63;;;8.20;96.30;;;;;;4942901;28;20265;-79
2022/04/06 06:59:41;;;;;;;5.47;4.27;;;8.30;96.30;;;;;;4975114;28;20216;-79
2022/04/06 07:02:07;;;;;;;3.93;3.60;;;8.30;96.30;;;;;;4975468;28;20194;-78
2022/04/06 07:04:33;;;;;;;3.80;3.30;;;8.40;96.30;;;;;;4975314;28;20410;-79
2022/04/06 07:06:58;;;;;;;5.63;3.47;;;8.40;96.30;;;;;;4953420;28;20419;-77
2022/04/06 07:09:24;;;;;;;5.40;3.80;;;8.50;96.30;;;;;;4967101;28;20182;-79
2022/04/06 07:11:50;;;;;;;6.77;3.97;;;8.50;96.30;;;;;;4975506;28;20194;-80
2022/04/06 07:14:15;;;;;;;5.07;4.10;;;8.50;96.30;;;;;;4962113;28;20205;-78
2022/04/06 07:16:40;;;;;;;5.70;3.60;;;8.40;96.30;;;;;;4940344;29;20178;-80
2022/04/06 07:19:06;;;;;;;8.13;4.60;;;8.40;96.30;;;;;;4958174;29;20183;-80
2022/04/06 07:21:31;;;;;;;3.83;3.43;;;8.40;96.30;;;;;;4957449;29;20194;-79
2022/04/06 07:23:58;;;;;;;6.10;4.17;;;8.40;96.30;;;;;;4957859;29;20206;-80
2022/04/06 07:26:23;;;;;;;4.50;3.87;;;8.40;96.30;;;;;;4958335;29;20175;-80
2022/04/06 07:28:49;;;;;;;4.53;3.77;;;8.30;96.30;;;;;;4957365;29;20445;-78
2022/04/06 07:31:14;;;;;;;5.90;4.00;;;8.30;96.30;;;;;;4956920;29;20194;-79
2022/04/06 07:33:40;;;;;;;5.53;4.30;;;8.40;96.30;;;;;;4939574;29;20238;-78
2022/04/06 07:36:07;;;;;;;6.10;3.60;;;8.50;96.30;;;;;;4957309;29;20213;-79
2022/04/06 07:38:33;;;;;;;6.90;3.50;;;8.50;96.30;;;;;;4956253;29;20226;-80
2022/04/06 07:40:58;;;;;;;7.40;3.77;;;8.60;96.30;;;;;;4956209;29;20431;-76
2022/04/06 07:43:25;;;;;;;8.30;4.60;;;8.60;96.30;;;;;;4958861;28;20577;-76
2022/04/06 07:45:50;;;;;;;4.17;3.43;;;8.50;96.30;;;;;;4973818;28;20174;-78
2022/04/06 07:48:16;;;;;;;5.43;4.00;;;8.50;96.30;;;;;;4966354;28;20474;-78
2022/04/06 07:50:41;;;;;;;9.77;4.70;;;8.60;96.30;;;;;;4954003;29;20197;-78
2022/04/06 07:53:07;;;;;;;3.63;3.33;;;8.60;96.30;;;;;;4953888;29;20186;-78
2022/04/06 07:55:33;;;;;;;4.13;3.20;;;8.60;96.30;;;;;;4953611;29;20297;-77
2022/04/06 07:57:59;;;;;;;4.60;3.67;;;8.60;96.30;;;;;;4936828;29;20177;-78
2022/04/06 08:00:24;;;;;;;5.50;3.70;;;8.70;96.30;;;;;;4936813;29;20206;-78
2022/04/06 08:02:51;;;;;;;5.10;3.90;;;8.80;96.30;;;;;;4954113;29;20169;-78
2022/04/06 08:05:18;;;;;;;5.03;3.47;;;8.90;96.30;;;;;;4937134;29;20877;-78
2022/04/06 08:07:44;;;;;;;4.40;3.70;;;8.80;96.30;;;;;;4936847;29;20485;-78
2022/04/06 08:10:12;;;;;;;4.20;3.30;;;8.80;96.30;;;;;;4954610;29;20415;-79
2022/04/06 08:12:38;;;;;;;3.70;3.13;;;8.80;96.30;;;;;;4937163;29;20465;-78
2022/04/06 08:15:04;;;;;;;4.97;4.10;;;8.90;96.30;;;;;;4953949;29;21151;-77
2022/04/06 08:17:37;;;;;;;5.90;3.27;;;9.00;96.30;;;;;;4956921;28;20303;-78
2022/04/06 08:20:04;;;;;;;5.63;4.20;;;9.10;96.30;;;;;;4957968;29;20773;-78
2022/04/06 08:22:29;;;;;;;6.20;3.73;;;9.20;96.30;;;;;;4958338;29;20952;-77
2022/04/06 08:24:55;;;;;;;4.13;3.77;;;9.30;96.30;;;;;;4957803;29;20499;-78
2022/04/06 08:27:20;;;;;;;9.80;3.87;;;9.10;96.30;;;;;;4958228;29;20226;-78
2022/04/06 08:29:46;;;;;;;8.97;4.13;;;9.20;96.30;;;;;;4940599;29;20225;-78
2022/04/06 08:32:11;;;;;;;4.90;3.70;;;9.30;96.30;;;;;;4957893;29;20222;-79
2022/04/06 08:34:37;;;;;;;4.40;4.00;;;9.20;96.30;;;;;;4958375;29;20246;-79
2022/04/06 08:37:02;;;;;;;7.47;3.67;;;8.90;96.30;;;;;;4959077;29;20230;-79
2022/04/06 08:39:28;;;;;;;8.10;3.57;;;9.00;96.30;;;;;;4941565;29;20175;-79
2022/04/06 08:41:55;;;;;;;4.30;3.90;;;9.20;96.30;;;;;;4942641;29;20686;-80
2022/04/06 08:44:20;;;;;;;4.30;3.90;;;9.70;96.30;;;;;;4947232;29;20245;-79
2022/04/06 08:46:50;;;;;;;3.40;3.10;;;10.80;96.30;;;;;;4940078;29;20899;-80
2022/04/06 08:49:16;;;;;;;4.60;3.00;;;12.30;96.30;;;;;;4940701;29;20283;-80
2022/04/06 08:51:44;;;;;;;3.97;3.60;;;13.00;96.30;;;;;;4940829;29;20498;-80
2022/04/06 08:54:10;;;;;;;5.53;3.77;;;13.40;96.30;;;;;;4940904;29;20466;-79
2022/04/06 08:56:35;;;;;;;3.23;2.93;;;13.30;96.30;;;;;;4940980;29;20415;-79
2022/04/06 08:59:01;;;;;;;6.37;3.83;;;12.90;96.30;;;;;;4940627;29;20211;-80
2022/04/06 09:01:31;;;;;;;7.10;3.40;;;12.20;96.30;;;;;;4941056;29;20202;-80
2022/04/06 09:03:58;;;;;;;4.93;3.53;;;11.40;96.30;;;;;;4940653;29;20223;-80
2022/04/06 09:06:25;;;;;;;5.33;3.07;;;10.80;96.30;;;;;;4940481;29;20447;-79
2022/04/06 09:08:50;;;;;;;4.23;3.13;;;10.70;96.30;;;;;;4924089;29;21025;-80
2022/04/06 09:11:20;;;;;;;3.97;3.57;;;11.90;96.30;;;;;;4941936;29;20443;-79
2022/04/06 09:13:48;;;;;;;4.90;3.30;;;12.40;96.30;;;;;;4929037;29;20256;-78
2022/04/06 09:16:17;;;;;;;3.47;3.17;;;13.50;96.30;;;;;;4941172;29;20445;-78
2022/04/06 09:18:45;;;;;;;3.67;3.10;;;13.70;96.30;;;;;;4941427;29;20400;-79
2022/04/06 09:21:12;;;;;;;4.23;3.50;;;13.90;96.30;;;;;;4941162;29;20434;-79
2022/04/06 09:23:38;;;;;;;4.47;3.07;;;14.20;96.30;;;;;;4942049;29;20412;-79
2022/04/06 09:26:06;;;;;;;4.73;2.93;;;15.30;96.30;;;;;;4940858;29;20471;-79
2022/04/06 09:28:32;;;;;;;3.23;2.70;;;16.20;96.30;;;;;;4940002;29;20623;-79
2022/04/06 09:30:58;;;;;;;7.53;3.57;;;16.30;96.30;;;;;;4942252;29;20431;-78
2022/04/06 09:33:28;;;;;;;4.50;3.40;;;15.70;96.30;;;;;;4941903;29;20416;-78
2022/04/06 09:35:55;;;;;;;6.60;3.23;;;14.70;96.30;;;;;;4924573;29;20419;-79
2022/04/06 09:38:27;;;;;;;10.70;3.60;;;13.70;96.30;;;;;;4924107;29;20828;-79
2022/04/06 09:41:06;;;;;;;5.37;2.87;;;12.80;96.30;;;;;;4923800;29;20475;-79
2022/04/06 09:43:34;;;;;;;4.10;3.10;;;12.50;96.30;;;;;;4940367;29;20462;-79
2022/04/06 09:49:08;;;;;;;4.80;3.27;;;12.80;96.30;;;;;;4940508;29;20417;-80
2022/04/06 09:51:36;;;;;;;3.60;3.13;;;13.00;96.30;;;;;;4924162;29;20443;-79
2022/04/06 09:54:06;;;;;;;4.23;3.30;;;13.70;96.30;;;;;;4924301;29;20459;-78
2022/04/06 09:56:34;;;;;;;4.13;3.63;;;14.50;96.30;;;;;;4941800;29;20415;-78
2022/04/06 09:59:02;;;;;;;3.77;2.93;;;14.30;96.30;;;;;;4924455;29;20466;-78
2022/04/06 10:01:45;;;;;;;4.07;3.13;;;14.20;96.30;;;;;;4923634;29;20905;-78
2022/04/06 10:04:17;;;;;;;6.53;3.87;;;13.20;96.30;;;;;;4924187;29;20419;-79
2022/04/06 10:06:43;;;;;;;3.83;3.53;;;13.80;96.30;;;;;;4924464;29;20422;-78
2022/04/06 10:09:11;;;;;;;4.53;4.07;;;13.50;96.30;;;;;;4940430;29;20420;-78
2022/04/06 10:11:38;;;;;;;3.90;3.50;;;13.40;96.30;;;;;;4941047;29;20671;-79
2022/04/06 10:14:06;;;;;;;5.97;3.93;;;13.40;96.30;;;;;;4940313;29;20517;-78
2022/04/06 10:16:36;;;;;;;4.67;3.57;;;13.50;96.30;;;;;;4940819;29;20470;-79
2022/04/06 10:19:05;;;;;;;3.47;2.60;;;13.50;96.30;;;;;;4940354;29;20427;-79
2022/04/06 10:21:53;;;;;;;5.73;3.70;;;13.80;96.30;;;;;;4922359;29;20446;-79
2022/04/06 10:24:37;;;;;;;4.20;3.80;;;13.90;96.30;;;;;;4926903;29;20422;-78
2022/04/06 10:27:17;;;;;;;5.00;3.40;;;15.00;96.30;;;;;;4941640;29;20474;-78
2022/04/06 10:30:15;;;;;;;3.93;3.57;;;15.80;96.30;;;;;;4941221;29;20422;-78
2022/04/06 10:32:46;;;;;;;4.20;3.80;;;16.00;96.30;;;;;;4931493;29;20415;-78
2022/04/06 10:35:22;;;;;;;6.10;4.17;;;15.50;96.30;;;;;;4939875;29;20493;-78
2022/04/06 10:38:17;;;;;;;4.03;3.67;;;14.50;96.30;;;;;;4939424;29;20419;-78
2022/04/06 10:40:42;;;;;;;4.63;3.47;;;13.60;96.30;;;;;;4930567;29;20447;-78
2022/04/06 10:43:38;;;;;;;4.43;3.90;;;13.00;96.30;;;;;;4941922;29;20490;-79
2022/04/06 10:46:14;;;;;;;3.97;3.57;;;12.90;96.30;;;;;;4958721;29;20171;-78
2022/04/06 10:49:15;;;;;;;4.30;2.83;;;12.80;96.30;;;;;;4941411;29;20517;-79
2022/04/06 10:51:43;;;;;;;3.97;3.53;;;12.60;96.30;;;;;;4958848;29;20441;-78
2022/04/06 10:54:12;;;;;;;4.50;4.10;;;12.00;96.30;;;;;;4958874;29;20454;-78
2022/04/06 10:56:49;;;;;;;4.50;4.10;;;12.00;96.30;;;;;;4958990;29;20497;-78
2022/04/06 10:59:23;;;;;;;4.17;3.77;;;12.00;96.30;;;;;;4958877;29;20418;-78
2022/04/06 11:02:09;;;;;;;5.20;3.90;;;12.40;96.30;;;;;;4959170;29;20426;-79
2022/04/06 11:04:42;;;;;;;3.43;3.13;;;12.40;96.30;;;;;;4959520;29;20465;-79
2022/04/06 11:07:08;;;;;;;3.97;3.67;;;12.30;96.30;;;;;;4958966;29;20418;-78
2022/04/06 11:12:23;;;;;;;5.93;3.90;;;12.80;96.30;;;;;;4959760;29;20772;-77
2022/04/06 11:15:00;;;;;;;4.53;3.83;;;12.70;96.30;;;;;;4943347;29;21040;-79
2022/04/06 11:17:34;;;;;;;3.73;3.23;;;12.90;96.30;;;;;;4947152;29;20430;-77
2022/04/06 11:20:19;;;;;;;4.83;3.73;;;13.00;96.30;;;;;;4969959;29;20406;-79
2022/04/06 11:22:55;;;;;;;7.40;4.07;;;13.60;96.30;;;;;;4981869;28;20433;-80
2022/04/06 11:25:22;;;;;;;4.33;3.93;;;13.00;96.30;;;;;;4970650;28;20431;-80
2022/04/06 11:27:49;;;;;;;5.10;3.80;;;12.70;96.30;;;;;;4986801;28;20417;-79
2022/04/06 11:30:20;;;;;;;3.20;2.90;;;12.60;96.30;;;;;;4978827;28;20464;-79
2022/04/06 11:32:56;;;;;;;5.73;3.50;;;12.30;96.30;;;;;;4976430;28;20410;-78
2022/04/06 11:35:31;;;;;;;4.90;3.43;;;12.10;96.30;;;;;;4959363;28;20949;-78
2022/04/06 11:37:57;;;;;;;3.20;3.00;;;12.20;96.30;;;;;;4976981;28;20410;-78
2022/04/06 11:40:24;;;;;;;3.80;3.33;;;12.10;96.30;;;;;;4959120;28;20416;-79
2022/04/06 11:42:52;;;;;;;4.20;3.40;;;12.20;96.30;;;;;;4958414;28;20428;-78
2022/04/06 11:45:22;;;;;;;3.53;3.27;;;12.00;96.30;;;;;;4958022;28;20556;-79
2022/04/06 11:48:02;;;;;;;7.83;3.70;;;11.60;96.30;;;;;;4957936;28;20488;-79
2022/04/06 11:50:32;;;;;;;6.60;3.33;;;11.50;96.30;;;;;;4958081;28;20427;-80
2022/04/06 11:53:18;;;;;;;4.50;3.90;;;11.50;96.30;;;;;;4958753;28;20417;-79
2022/04/06 11:55:49;;;;;;;4.20;3.07;;;12.10;96.30;;;;;;4958611;28;20461;-79
2022/04/06 11:58:30;;;;;;;5.30;3.33;;;12.70;96.30;;;;;;4959309;28;20847;-79
2022/04/06 12:01:06;;;;;;;5.73;3.97;;;13.40;96.30;;;;;;4975774;28;20516;-80
2022/04/06 12:03:36;;;;;;;5.10;3.60;;;13.50;96.30;;;;;;4976086;28;20414;-81
2022/04/06 12:06:04;;;;;;;4.00;3.60;;;13.30;96.30;;;;;;4975536;28;20418;-80
2022/04/06 12:08:34;;;;;;;4.73;4.20;;;13.10;96.30;;;;;;4961265;28;20784;-81
2022/04/06 12:11:01;;;;;;;5.07;4.00;;;12.90;96.30;;;;;;4955776;29;20441;-80
2022/04/06 12:13:30;;;;;;;4.10;3.20;;;13.00;96.30;;;;;;4954228;29;20505;-76
2022/04/06 12:15:56;;;;;;;5.00;3.77;;;12.90;96.30;;;;;;4936747;29;20418;-79
2022/04/06 12:18:25;;;;;;;3.20;2.90;;;12.70;96.30;;;;;;4953650;29;20920;-79
2022/04/06 12:20:51;;;;;;;3.70;3.40;;;12.90;96.30;;;;;;4953763;29;20423;-76
2022/04/06 12:23:18;;;;;;;4.43;3.50;;;12.90;96.30;;;;;;4953830;29;20413;-75
2022/04/06 12:25:44;;;;;;;5.90;3.60;;;12.90;96.30;;;;;;4955029;28;20266;-79
2022/04/06 12:28:11;;;;;;;7.60;3.80;;;12.80;96.30;;;;;;4972679;28;20835;-78
2022/04/06 12:30:53;;;;;;;3.27;2.87;;;12.80;96.30;;;;;;4973029;28;20206;-76
2022/04/06 12:33:42;;;;;;;4.63;3.67;;;12.70;96.30;;;;;;4954013;29;20430;-76
2022/04/06 12:36:08;;;;;;;3.67;3.27;;;13.00;96.30;;;;;;4933205;28;20444;-77
2022/04/06 12:38:34;;;;;;;2.93;2.73;;;13.10;96.30;;;;;;4955373;28;20429;-76
2022/04/06 12:41:17;;;;;;;3.50;3.00;;;12.80;96.30;;;;;;4972876;28;20198;-76
2022/04/06 12:43:46;;;;;;;4.13;2.93;;;12.80;96.30;;;;;;4972968;28;20874;-78
2022/04/06 12:46:12;;;;;;;5.17;2.90;;;12.80;96.30;;;;;;4970541;28;20425;-76
2022/04/06 12:48:38;;;;;;;6.07;3.20;;;12.90;96.30;;;;;;4955281;28;20440;-77
2022/04/06 12:51:21;;;;;;;4.43;2.60;;;13.00;96.30;;;;;;4958907;28;20860;-76
2022/04/06 12:53:50;;;;;;;4.20;3.27;;;13.20;96.30;;;;;;4953420;29;20250;-80
2022/04/06 12:56:22;;;;;;;3.70;2.57;;;13.20;96.30;;;;;;4953536;29;20796;-76
2022/04/06 12:59:14;;;;;;;5.43;3.27;;;13.10;96.30;;;;;;4936109;29;20505;-77
2022/04/06 13:01:49;;;;;;;3.80;3.40;;;13.00;96.30;;;;;;4936445;28;20446;-78
2022/04/06 13:04:15;;;;;;;4.07;2.93;;;13.00;96.30;;;;;;4957109;29;20410;-79
2022/04/06 13:06:41;;;;;;;4.37;2.87;;;13.20;96.30;;;;;;4956949;29;20828;-76
2022/04/06 13:09:13;;;;;;;3.30;3.00;;;13.40;96.30;;;;;;4956739;29;20189;-76
2022/04/06 13:11:40;;;;;;;5.27;3.10;;;13.50;96.30;;;;;;4956883;29;21096;-77
2022/04/06 13:14:06;;;;;;;4.17;2.90;;;13.70;96.30;;;;;;4956832;29;20497;-79
2022/04/06 13:16:33;;;;;;;6.50;3.37;;;14.30;96.30;;;;;;4939534;29;20442;-76
2022/04/06 13:19:00;;;;;;;2.97;2.70;;;14.70;96.30;;;;;;4956438;29;20414;-76
2022/04/06 13:21:27;;;;;;;3.70;2.80;;;14.00;96.30;;;;;;4956584;29;20462;-76
2022/04/06 13:23:53;;;;;;;4.77;3.50;;;13.50;96.30;;;;;;4956603;29;20902;-76
2022/04/06 13:26:19;;;;;;;4.90;3.13;;;13.30;96.30;;;;;;4956467;29;20418;-77
2022/04/06 13:28:45;;;;;;;5.20;2.70;;;13.40;96.30;;;;;;4956316;29;20194;-76
2022/04/06 13:31:10;;;;;;;3.30;2.80;;;13.40;96.30;;;;;;4956290;29;20442;-77
2022/04/06 13:33:36;;;;;;;3.23;2.80;;;13.60;96.30;;;;;;4956173;29;20183;-78
2022/04/06 13:36:01;;;;;;;3.30;2.73;;;13.50;96.30;;;;;;4956084;29;20175;-77
2022/04/06 13:38:28;;;;;;;5.23;3.40;;;13.30;96.30;;;;;;4938562;29;20266;-77
2022/04/06 13:40:54;;;;;;;4.80;3.80;;;13.30;96.30;;;;;;4956096;29;20234;-77
2022/04/06 13:43:20;;;;;;;4.90;2.87;;;13.60;96.30;;;;;;4958974;28;20457;-76
2022/04/06 13:45:45;;;;;;;3.67;3.37;;;13.90;96.30;;;;;;4964671;28;20413;-76
2022/04/06 13:48:11;;;;;;;4.13;3.73;;;13.80;96.30;;;;;;4956331;29;20183;-78
2022/04/06 13:50:36;;;;;;;4.30;3.40;;;14.20;96.30;;;;;;4939685;29;20202;-81
2022/04/06 13:53:02;;;;;;;5.87;3.17;;;14.80;96.30;;;;;;4963473;28;20847;-77
2022/04/06 13:55:27;;;;;;;4.13;3.73;;;14.60;96.30;;;;;;4947730;28;20249;-78
2022/04/06 13:57:53;;;;;;;3.70;3.27;;;14.50;96.30;;;;;;4974248;28;20170;-80
2022/04/06 14:00:19;;;;;;;5.13;3.30;;;14.40;96.30;;;;;;4967654;28;20692;-77
2022/04/06 14:02:48;;;;;;;4.80;3.17;;;14.80;96.30;;;;;;4963856;28;20185;-80
2022/04/06 14:05:13;;;;;;;4.93;3.30;;;14.60;96.30;;;;;;4966646;28;20477;-81
2022/04/06 14:07:39;;;;;;;5.23;3.70;;;14.70;96.30;;;;;;4971393;28;20420;-77
2022/04/06 14:10:05;;;;;;;3.83;3.30;;;14.40;96.30;;;;;;4965996;28;20215;-77
2022/04/06 14:12:31;;;;;;;2.70;2.50;;;14.40;96.30;;;;;;4963875;28;20599;-78
2022/04/06 14:14:57;;;;;;;4.23;2.70;;;14.70;95.70;;;;;;4955206;28;20467;-77
2022/04/06 14:17:23;;;;;;;5.40;2.93;;;14.40;96.30;;;;;;4974028;28;20413;-79
2022/04/06 14:19:48;;;;;;;7.27;3.53;;;14.10;96.30;;;;;;4975213;28;20659;-78
2022/04/06 14:22:13;;;;;;;3.70;2.70;;;13.70;96.30;;;;;;4955495;29;20270;-81
2022/04/06 14:25:14;;;;;;;5.77;3.33;;;14.00;96.30;;;;;;4973769;28;20182;-77
2022/04/06 14:27:24;;;;;;;8.53;2.90;;;14.20;95.60;;;;;;4962400;28;20201;-77
2022/04/06 14:29:50;;;;;;;4.10;2.90;;;14.30;96.10;;;;;;4966801;28;20434;-78
2022/04/06 14:32:15;;;;;;;3.70;3.40;;;14.20;96.30;;;;;;4962898;28;20634;-78
2022/04/06 14:34:41;;;;;;;4.13;3.20;;;14.20;96.30;;;;;;4953363;28;20206;-79
2022/04/06 14:37:07;;;;;;;4.27;2.97;;;14.10;96.30;;;;;;4951150;28;20914;-80
2022/04/06 14:39:32;;;;;;;5.60;4.23;;;14.00;96.30;;;;;;4954097;29;20171;-77
2022/04/06 14:41:58;;;;;;;3.40;3.10;;;13.70;96.30;;;;;;4971381;28;20828;-79
2022/04/06 14:44:25;;;;;;;3.87;2.70;;;13.50;96.30;;;;;;4958694;28;20195;-77
2022/04/06 14:46:50;;;;;;;6.40;3.60;;;13.50;96.30;;;;;;4955425;29;20171;-77
2022/04/06 14:49:17;;;;;;;3.47;2.73;;;13.20;96.30;;;;;;4954794;29;20973;-78
2022/04/06 14:51:43;;;;;;;7.57;3.53;;;13.00;96.30;;;;;;4955186;29;20194;-77
2022/04/06 14:54:09;;;;;;;3.73;3.43;;;12.90;96.30;;;;;;4937671;29;20458;-78
2022/04/06 14:56:35;;;;;;;3.67;3.03;;;12.80;96.30;;;;;;4956516;28;20468;-80
2022/04/06 14:59:00;;;;;;;6.80;3.03;;;13.00;96.30;;;;;;4958638;28;20187;-81
2022/04/06 15:01:25;;;;;;;4.20;3.07;;;13.00;96.30;;;;;;4950190;28;20438;-80
2022/04/06 15:03:51;;;;;;;5.23;2.97;;;13.10;96.30;;;;;;4941686;28;20686;-80
2022/04/06 15:06:16;;;;;;;8.93;2.93;;;13.20;96.30;;;;;;4957825;28;20209;-81
2022/04/06 15:08:44;;;;;;;5.80;3.17;;;13.10;96.30;;;;;;4941015;28;20327;-80
2022/04/06 15:11:10;;;;;;;5.00;2.67;;;12.90;96.30;;;;;;4957915;28;20191;-80
2022/04/06 15:13:35;;;;;;;4.23;3.73;;;12.80;96.30;;;;;;4938372;28;20427;-79
2022/04/06 15:16:01;;;;;;;5.93;3.17;;;12.80;96.30;;;;;;4951072;28;20202;-81
2022/04/06 15:18:26;;;;;;;4.20;2.80;;;12.90;96.30;;;;;;4973691;28;20188;-80
2022/04/06 15:20:52;;;;;;;6.17;3.17;;;12.90;96.30;;;;;;4974716;28;20212;-80
2022/04/06 15:23:17;;;;;;;5.53;3.13;;;12.70;96.30;;;;;;4958175;28;20578;-82
2022/04/06 15:25:45;;;;;;;4.97;3.10;;;12.70;96.30;;;;;;4956992;28;20205;-82
2022/04/06 15:28:12;;;;;;;2.83;2.60;;;12.60;96.30;;;;;;4956317;28;20629;-82
2022/04/06 15:30:37;;;;;;;4.27;2.87;;;12.60;96.30;;;;;;4974303;28;20528;-82
2022/04/06 15:33:03;;;;;;;3.07;2.40;;;12.50;96.30;;;;;;4957032;28;20505;-82
2022/04/06 15:38:13;;;;;;;4.00;2.80;;;12.40;96.30;;;;;;4975104;28;20233;-82
2022/04/06 15:40:38;;;;;;;5.30;2.30;;;12.40;96.30;;;;;;4958563;28;20946;-82
2022/04/06 15:43:04;;;;;;;3.90;2.23;;;12.30;96.30;;;;;;4971123;28;20202;-82
2022/04/06 15:45:32;;;;;;;3.70;2.50;;;12.30;96.30;;;;;;4954158;28;20178;-82
2022/04/06 15:47:57;;;;;;;4.20;2.87;;;12.40;96.30;;;;;;4958122;28;20269;-82
2022/04/06 15:50:23;;;;;;;3.10;2.80;;;12.50;96.30;;;;;;4975199;28;20442;-81
2022/04/06 15:52:48;;;;;;;3.63;2.37;;;12.40;96.30;;;;;;4948773;29;20226;-82
2022/04/06 15:55:17;;;;;;;2.63;2.40;;;12.40;96.30;;;;;;4961664;28;20202;-84
2022/04/06 15:57:42;;;;;;;3.60;2.37;;;12.50;96.30;;;;;;4936766;29;20171;-78
2022/04/06 16:00:08;;;;;;;3.37;2.20;;;12.50;96.30;;;;;;4954564;29;20421;-82
2022/04/06 16:02:34;;;;;;;8.60;2.57;;;12.40;96.30;;;;;;4955640;28;20282;-82
2022/04/06 16:04:59;;;;;;;5.20;2.30;;;12.20;96.30;;;;;;4950304;28;20586;-80
2022/04/06 16:07:25;;;;;;;4.50;2.30;;;12.00;96.30;;;;;;4964488;28;20909;-82
2022/04/06 16:09:50;;;;;;;4.57;3.20;;;11.90;96.30;;;;;;4955017;28;20202;-83
2022/04/06 16:12:17;;;;;;;6.20;2.80;;;11.90;96.30;;;;;;4939734;28;20214;-82
2022/04/06 16:14:43;;;;;;;4.03;2.03;;;11.90;96.30;;;;;;4962155;28;20205;-83
2022/04/06 16:17:09;;;;;;;2.50;1.97;;;11.80;96.30;;;;;;4956827;28;20429;-82
2022/04/06 16:19:34;;;;;;;5.30;2.33;;;11.80;96.30;;;;;;4971962;28;20265;-82
2022/04/06 16:22:03;;;;;;;2.30;2.10;;;11.60;96.30;;;;;;4970923;28;20563;-81
2022/04/06 16:24:29;;;;;;;2.70;2.27;;;11.60;96.30;;;;;;4954361;28;20175;-82
2022/04/06 16:26:54;;;;;;;4.40;2.40;;;11.60;96.30;;;;;;4937042;29;20482;-81
2022/04/06 16:29:22;;;;;;;3.30;1.40;;;11.50;96.30;;;;;;4956113;28;20171;-82
2022/04/06 16:31:48;;;;;;;4.10;2.57;;;11.50;96.30;;;;;;4955650;29;20679;-82
2022/04/06 16:34:14;;;;;;;1.87;1.40;;;11.40;96.30;;;;;;4957404;28;20461;-80
2022/04/06 16:36:42;;;;;;;5.83;2.40;;;11.40;96.30;;;;;;4973744;28;20177;-81
2022/04/06 16:39:08;;;;;;;1.80;1.70;;;11.30;96.30;;;;;;4942955;29;20470;-81
2022/04/06 16:41:35;;;;;;;3.33;1.97;;;11.30;96.30;;;;;;4950512;28;20497;-81
2022/04/06 16:44:05;;;;;;;3.27;1.30;;;11.30;96.30;;;;;;4962864;28;20441;-79
2022/04/06 16:46:32;;;;;;;4.47;2.00;;;11.40;96.30;;;;;;4980445;28;20409;-78
2022/04/06 16:49:04;;;;;;;3.53;1.83;;;11.60;96.30;;;;;;4959791;28;20429;-80
2022/04/06 16:54:18;;;;;;;2.60;1.70;;;11.70;96.30;;;;;;4979849;28;20459;-78
2022/04/06 16:56:44;;;;;;;3.10;1.50;;;11.60;96.30;;;;;;4978103;28;20414;-78
2022/04/06 16:59:09;;;;;;;3.07;1.90;;;11.50;96.30;;;;;;4961053;28;20562;-79
2022/04/06 19:09:47;;;;;;;2.77;2.30;;;9.10;96.30;;;;;;5015795;28;20467;-80
2022/04/06 19:12:12;;;;;;;9.47;7.10;;;9.20;96.30;;;;;;5017858;28;20432;-79
2022/04/06 19:14:41;;;;;;;2.80;2.10;;;9.30;96.30;;;;;;4995467;28;20658;-80
2022/04/06 19:17:07;;;;;;;3.90;3.00;;;9.30;96.30;;;;;;4997827;28;20170;-79
2022/04/06 19:19:32;;;;;;;13.33;9.50;;;9.20;96.30;;;;;;4980426;28;20475;-79
2022/04/06 19:21:58;;;;;;;3.40;2.97;;;9.00;96.30;;;;;;4994248;28;20697;-76
2022/04/06 19:24:23;;;;;;;2.43;2.10;;;9.00;96.30;;;;;;4975713;28;20181;-78
2022/04/06 19:26:49;;;;;;;4.83;1.83;;;9.00;96.30;;;;;;4993188;28;20172;-77
2022/04/06 19:29:15;;;;;;;3.60;2.10;;;9.10;96.30;;;;;;4992832;28;20178;-79
2022/04/06 19:31:41;;;;;;;3.30;2.00;;;9.10;96.30;;;;;;4981194;28;20237;-78
2022/04/06 19:34:08;;;;;;;3.63;2.00;;;9.00;96.30;;;;;;4994525;28;20475;-76
2022/04/06 19:36:34;;;;;;;3.23;2.00;;;9.10;96.30;;;;;;5012381;28;20188;-77